MSC Orchestra — 3EJF3 — position and weather

sailwx.info

Track history (hours):
 
Tides and Currents Weather Stations Pressure Air Temp Water Temp Dewpoint Dewpoint Depression Visibility Wind Speed Wind Dir Waves Ship Positions

MSC Orchestra

Last reported at 2017-Aug-20 23:00 UTC. Time now 2017-Aug-20 23:10 UTC.
Position N 43°38' E 008°03'.

Length 294 m; draft 7.7 m.

Type: Ship. MMSI: 372497000.

Date/timePositionNaut miles runAvg speedWind from/ knotsBaromVisibWave heightAir tempDewpointWater temp
2017-Aug-20 23:00N 43°38' E 008°03'5 9.3
2017-Aug-20 22:30N 43°40' E 008°09'5 9.4
2017-Aug-20 22:00N 43°42' E 008°14'5 9.1
2017-Aug-20 21:30N 43°45' E 008°19'5 9.4
2017-Aug-20 21:00N 43°48' E 008°24'5 9.5
2017-Aug-20 20:30N 43°52' E 008°28'5 9.4
2017-Aug-20 20:00N 43°56' E 008°32'5 9.3
2017-Aug-20 19:30N 43°59' E 008°36'5 9.1
2017-Aug-20 19:00N 44°03' E 008°40'5 9.1
2017-Aug-20 18:30N 44°06' E 008°44'5 9.3
2017-Aug-20 18:00N 44°10' E 008°48'5 9.4
2017-Aug-20 17:30N 44°14' E 008°52'5 9.4
2017-Aug-20 17:00N 44°17' E 008°56'5 9.5
2017-Aug-20 16:30N 44°22' E 008°57'3 5.8
2017-Aug-20 16:00N 44°25' E 008°55'0 0.0
2017-Aug-20 15:30N 44°25' E 008°55'0 0.0
2017-Aug-20 15:00N 44°25' E 008°55'0 0.0
2017-Aug-20 14:30N 44°25' E 008°55'0 0.0
2017-Aug-20 14:00N 44°25' E 008°55'0 0.0
2017-Aug-20 13:30N 44°25' E 008°55'0 0.0
2017-Aug-20 13:00N 44°25' E 008°55'0 0.0
2017-Aug-20 12:30N 44°25' E 008°55'0 0.0
2017-Aug-20 12:00N 44°25' E 008°55'0 0.0
2017-Aug-20 11:30N 44°25' E 008°55'0 0.0
2017-Aug-20 11:00N 44°25' E 008°55'0 0.0
2017-Aug-20 10:30N 44°25' E 008°55'0 0.0
2017-Aug-20 10:00N 44°25' E 008°55'0 0.0
2017-Aug-20 09:30N 44°25' E 008°55'0 0.0
2017-Aug-20 09:00N 44°25' E 008°55'0 0.0
2017-Aug-20 08:30N 44°25' E 008°55'0 0.0
2017-Aug-20 08:00N 44°25' E 008°55'0 0.0
2017-Aug-20 07:30N 44°25' E 008°55'0 0.0
2017-Aug-20 07:00N 44°25' E 008°55'0 0.0
2017-Aug-20 06:30N 44°25' E 008°55'0 0.0
2017-Aug-20 06:00N 44°25' E 008°55'0 0.1
2017-Aug-20 05:30N 44°25' E 008°55'1 1.8
2017-Aug-20 05:00N 44°24' E 008°55'4 7.9
2017-Aug-20 04:31N 44°21' E 008°59'5 9.3
2017-Aug-20 04:00N 44°16' E 008°59'3 6.8
2017-Aug-20 03:30N 44°13' E 008°60'3 6.9
2017-Aug-20 03:00N 44°09' E 008°60'3 6.9
2017-Aug-20 02:30N 44°06' E 009°00'3 6.6
2017-Aug-20 02:00N 44°02' E 009°00'3 6.2
2017-Aug-20 01:30N 43°59' E 009°01'3 6.2
2017-Aug-20 01:00N 43°56' E 009°01'3 6.4
2017-Aug-20 00:30N 43°53' E 009°01'3 6.5
2017-Aug-20 00:00N 43°50' E 009°02'3 6.1
2017-Aug-19 23:30N 43°47' E 009°04'3 6.2
2017-Aug-19 23:00N 43°47' E 009°08'3 6.4
2017-Aug-19 22:30N 43°49' E 009°12'3 6.2
2017-Aug-19 22:00N 43°50' E 009°16'3 6.4
2017-Aug-19 21:30N 43°50' E 009°20'3 6.4
2017-Aug-19 21:00N 43°51' E 009°24'3 6.7
2017-Aug-19 20:30N 43°53' E 009°29'3 6.7
2017-Aug-19 20:00N 43°54' E 009°33'3 6.7
2017-Aug-19 19:30N 43°55' E 009°38'3 6.7
2017-Aug-19 19:00N 43°56' E 009°42'3 6.6
2017-Aug-19 18:30N 43°58' E 009°46'3 6.6
2017-Aug-19 18:00N 43°59' E 009°50'4 7.6
2017-Aug-19 17:30N 44°02' E 009°52'4 8.4
2017-Aug-19 17:01N 44°06' E 009°50'0 0.2
2017-Aug-19 16:29N 44°06' E 009°50'0 0.0
2017-Aug-19 15:59N 44°06' E 009°50'0 0.0
2017-Aug-19 15:28N 44°06' E 009°50'0 0.0
2017-Aug-19 14:58N 44°06' E 009°50'0 0.0
2017-Aug-19 13:58N 44°06' E 009°50'0 0.0
2017-Aug-19 13:28N 44°06' E 009°50'0 0.0
2017-Aug-19 13:00N 44°06' E 009°50'0 0.0
2017-Aug-19 12:30N 44°06' E 009°50'0 0.0
2017-Aug-19 12:00N 44°06' E 009°50'0 0.0
2017-Aug-19 11:30N 44°06' E 009°50'0 0.0
2017-Aug-19 10:57N 44°06' E 009°50'0 0.0
2017-Aug-19 10:29N 44°06' E 009°50'0 0.0
2017-Aug-19 09:59N 44°06' E 009°50'0 0.0
2017-Aug-19 09:29N 44°06' E 009°50'0 0.0
2017-Aug-19 08:56N 44°06' E 009°50'0 0.0
2017-Aug-19 08:29N 44°06' E 009°50'0 0.0
2017-Aug-19 07:58N 44°06' E 009°50'0 0.0
2017-Aug-19 07:28N 44°06' E 009°50'0 0.0
2017-Aug-19 06:58N 44°06' E 009°50'0 0.0
2017-Aug-19 06:28N 44°06' E 009°50'0 0.0
2017-Aug-19 06:00N 44°06' E 009°50'0 0.0
2017-Aug-19 05:30N 44°06' E 009°50'0 0.0
2017-Aug-19 05:00N 44°06' E 009°50'0 0.3
2017-Aug-19 04:30N 44°06' E 009°50'1 2.9
2017-Aug-19 04:00N 44°05' E 009°51'510.6
2017-Aug-19 03:30N 44°01' E 009°56'815.1
2017-Aug-19 03:00N 43°54' E 009°53'816.5
2017-Aug-19 02:30N 43°46' E 009°48'816.5
2017-Aug-19 02:00N 43°39' E 009°42'816.1
2017-Aug-19 01:30N 43°32' E 009°38'917.0
2017-Aug-19 01:00N 43°24' E 009°44'817.0
2017-Aug-19 00:30N 43°17' E 009°50'816.8
2017-Aug-19 00:00N 43°10' E 009°56'816.4
2017-Aug-18 23:30N 43°02' E 009°60'917.4
2017-Aug-18 23:00N 42°53' E 010°01'816.5
2017-Aug-18 22:30N 42°45' E 010°02'816.9
2017-Aug-18 22:00N 42°39' E 010°09'917.5
2017-Aug-18 21:30N 42°34' E 010°19'917.4
2017-Aug-18 21:00N 42°29' E 010°28'917.5
2017-Aug-18 20:30N 42°23' E 010°37'817.3
2017-Aug-18 20:00N 42°17' E 010°46'817.0
2017-Aug-18 19:30N 42°12' E 010°55'816.5
2017-Aug-18 19:00N 42°09' E 011°06'917.2
2017-Aug-18 18:30N 42°08' E 011°17'18 1.3
2017-Aug-18 04:17N 42°04' E 011°41'1214.9
2017-Aug-18 03:28N 41°60' E 011°26'715.1
2017-Aug-18 03:00N 41°57' E 011°17'915.2
2017-Aug-18 02:25N 41°54' E 011°06'1715.3
2017-Aug-18 01:19N 41°47' E 010°45'815.4
2017-Aug-18 00:47N 41°44' E 010°35'615.4
2017-Aug-18 00:22N 41°42' E 010°27'615.4
2017-Aug-18 00:00N 41°40' E 010°20'815.4
2017-Aug-17 23:30N 41°36' E 010°11'1415.6
2017-Aug-17 22:38N 41°31' E 009°54'715.3
2017-Aug-17 22:09N 41°28' E 009°45'215.4
2017-Aug-17 22:00N 41°27' E 009°43'815.5
2017-Aug-17 21:28N 41°25' E 009°32'46 3.6
2017-Aug-17 08:45N 41°51' E 008°42'417.8
2017-Aug-17 08:30N 41°49' E 008°37'1817.5
2017-Aug-17 07:29N 41°45' E 008°14'918.0
2017-Aug-17 07:00N 41°44' E 008°03'1018.4
2017-Aug-17 06:29N 41°43' E 007°50'918.4
2017-Aug-17 06:00N 41°42' E 007°38'918.3
2017-Aug-17 05:30N 41°41' E 007°26'1018.9
2017-Aug-17 05:00N 41°40' E 007°13'918.8
2017-Aug-17 04:30N 41°39' E 007°01'918.8
2017-Aug-17 04:00N 41°38' E 006°48'918.7
2017-Aug-17 03:30N 41°37' E 006°36'918.7
2017-Aug-17 03:00N 41°36' E 006°23'918.8
2017-Aug-17 02:30N 41°35' E 006°11'1319.0
2017-Aug-17 01:50N 41°34' E 005°54'618.9
2017-Aug-17 01:29N 41°33' E 005°45'918.8
2017-Aug-17 01:00N 41°32' E 005°33'1318.4
2017-Aug-17 00:18N 41°31' E 005°16'918.9
2017-Aug-16 23:49N 41°30' E 005°04'719.3
2017-Aug-16 23:29N 41°29' E 004°55'1018.9
2017-Aug-16 22:58N 41°28' E 004°42'918.9
2017-Aug-16 22:30N 41°27' E 004°31'1018.9
2017-Aug-16 22:00N 41°26' E 004°18'918.7
2017-Aug-16 21:30N 41°25' E 004°06'918.6
2017-Aug-16 21:00N 41°24' E 003°54'918.5
2017-Aug-16 20:30N 41°24' E 003°41'918.5
2017-Aug-16 20:00N 41°23' E 003°29'918.4
2017-Aug-16 19:30N 41°22' E 003°17'918.8
2017-Aug-16 19:00N 41°21' E 003°04'918.7
2017-Aug-16 18:30N 41°20' E 002°52'918.7
2017-Aug-16 18:00N 41°19' E 002°40'918.8
2017-Aug-16 17:30N 41°18' E 002°27'918.8
2017-Aug-16 17:00N 41°17' E 002°15'5 9.9
2017-Aug-16 16:30N 41°20' E 002°10'2 3.2
2017-Aug-16 16:00N 41°22' E 002°11'0 0.0
2017-Aug-16 15:28N 41°22' E 002°11'0 0.0
2017-Aug-16 14:58N 41°22' E 002°11'0 0.0
2017-Aug-16 14:03N 41°22' E 002°11'0 0.0
2017-Aug-16 13:54N 41°22' E 002°11'0 0.0
2017-Aug-16 12:02N 41°22' E 002°11'0 0.0
2017-Aug-16 11:44N 41°22' E 002°11'0 0.0
2017-Aug-16 11:08N 41°22' E 002°11'0 0.0
2017-Aug-16 10:56N 41°22' E 002°11'0 0.0
2017-Aug-16 09:44N 41°22' E 002°11'0 0.0
2017-Aug-16 09:25N 41°22' E 002°11'0 0.0
2017-Aug-16 08:55N 41°22' E 002°11'0 0.0
2017-Aug-16 07:37N 41°22' E 002°11'0 0.0
2017-Aug-16 07:06N 41°22' E 002°11'0 0.0
2017-Aug-16 06:58N 41°22' E 002°11'1 2.3
2017-Aug-16 06:30N 41°21' E 002°10'3 5.6
2017-Aug-16 06:00N 41°18' E 002°11'814.8
2017-Aug-16 05:30N 41°10' E 002°11'1017.7
2017-Aug-16 04:57N 41°01' E 002°11'818.1
2017-Aug-16 04:30N 40°53' E 002°12'1118.3
2017-Aug-16 03:55N 40°42' E 002°12'818.2
2017-Aug-16 03:30N 40°35' E 002°12'918.4
2017-Aug-16 03:00N 40°25' E 002°12'918.1
2017-Aug-16 02:30N 40°16' E 002°13'918.3
2017-Aug-16 02:00N 40°07' E 002°13'918.4
2017-Aug-16 01:30N 39°58' E 002°14'918.5
2017-Aug-16 01:00N 39°49' E 002°14'918.7
2017-Aug-16 00:31N 39°39' E 002°15'917.6
2017-Aug-15 23:58N 39°31' E 002°20'818.3
2017-Aug-15 23:30N 39°26' E 002°29'815.7
2017-Aug-15 23:00N 39°30' E 002°37'3 6.7
2017-Aug-15 22:30N 39°33' E 002°38'0 0.2
2017-Aug-15 21:59N 39°33' E 002°38'0 0.0
2017-Aug-15 21:29N 39°33' E 002°38'0 0.0
2017-Aug-15 20:59N 39°33' E 002°38'0 0.0
2017-Aug-15 20:29N 39°33' E 002°38'0 0.0
2017-Aug-15 19:59N 39°33' E 002°38'0 0.0
2017-Aug-15 19:28N 39°33' E 002°38'0 0.0
2017-Aug-15 18:55N 39°33' E 002°38'0 0.0
2017-Aug-15 18:25N 39°33' E 002°38'0 0.0
2017-Aug-15 17:58N 39°33' E 002°38'0 0.0
2017-Aug-15 17:30N 39°33' E 002°38'0 0.0
2017-Aug-15 17:00N 39°33' E 002°38'0 0.0
2017-Aug-15 16:30N 39°33' E 002°38'0 0.0
2017-Aug-15 16:00N 39°33' E 002°38'0 0.0
2017-Aug-15 15:30N 39°33' E 002°38'0 0.0
2017-Aug-15 14:59N 39°33' E 002°38'0 0.0
2017-Aug-15 14:23N 39°33' E 002°38'0 0.0
2017-Aug-15 13:59N 39°33' E 002°38'0 0.0
2017-Aug-15 13:29N 39°33' E 002°38'0 0.0
2017-Aug-15 12:58N 39°33' E 002°38'0 0.0
2017-Aug-15 12:25N 39°33' E 002°38'0 0.0
2017-Aug-15 11:58N 39°33' E 002°38'0 0.2
2017-Aug-15 11:30N 39°33' E 002°38'2 3.6
2017-Aug-15 11:00N 39°31' E 002°38'814.9
2017-Aug-15 10:30N 39°26' E 002°32'714.0
2017-Aug-15 10:00N 39°28' E 002°23'815.5
2017-Aug-15 09:30N 39°34' E 002°16'815.0
2017-Aug-15 08:59N 39°41' E 002°20'816.2
2017-Aug-15 08:30N 39°46' E 002°28'816.2
2017-Aug-15 08:00N 39°52' E 002°35'816.4
2017-Aug-15 07:30N 39°57' E 002°43'816.2
2017-Aug-15 07:00N 40°03' E 002°50'816.3
2017-Aug-15 06:30N 40°09' E 002°58'816.2
2017-Aug-15 06:00N 40°15' E 003°06'816.3
2017-Aug-15 05:30N 40°20' E 003°13'816.3
2017-Aug-15 05:00N 40°26' E 003°21'916.4
2017-Aug-15 04:29N 40°32' E 003°29'1217.0
2017-Aug-15 03:46N 40°40' E 003°40'4416.8
2017-Aug-15 01:07N 41°12' E 004°22'216.8
2017-Aug-15 01:00N 41°13' E 004°24'816.3
2017-Aug-15 00:30N 41°19' E 004°32'816.0
2017-Aug-15 00:01N 41°24' E 004°39'1016.1
2017-Aug-14 23:22N 41°31' E 004°49'616.5
2017-Aug-14 22:59N 41°36' E 004°55'816.6
2017-Aug-14 22:30N 41°41' E 005°03'816.5
2017-Aug-14 22:00N 41°47' E 005°11'816.9
2017-Aug-14 21:30N 41°53' E 005°19'916.7
2017-Aug-14 20:59N 41°59' E 005°27'816.6
2017-Aug-14 20:30N 42°05' E 005°35'816.5
2017-Aug-14 20:00N 42°11' E 005°43'1116.7
2017-Aug-14 19:19N 42°19' E 005°54'516.8
2017-Aug-14 19:00N 42°22' E 005°59'816.5
2017-Aug-14 18:30N 42°28' E 006°07'816.8
2017-Aug-14 18:00N 42°34' E 006°15'917.1
2017-Aug-14 17:31N 42°40' E 006°24'917.4
2017-Aug-14 17:00N 42°46' E 006°32'917.3
2017-Aug-14 16:30N 42°52' E 006°40'917.4
2017-Aug-14 16:01N 42°58' E 006°48'917.3
2017-Aug-14 15:30N 43°07' E 006°52'917.3
2017-Aug-14 15:00N 43°15' E 006°55'817.4
2017-Aug-14 14:31N 43°23' E 006°58'816.5
2017-Aug-14 14:00N 43°31' E 007°00'1 1.7
2017-Aug-14 13:29N 43°32' E 007°01'0 0.0
2017-Aug-14 13:00N 43°32' E 007°01'0 0.0
2017-Aug-14 12:30N 43°32' E 007°01'0 0.0
2017-Aug-14 12:00N 43°32' E 007°01'0 0.0
2017-Aug-14 11:30N 43°32' E 007°01'0 0.1
2017-Aug-14 11:00N 43°32' E 007°01'0 0.0
2017-Aug-14 10:30N 43°32' E 007°01'0 0.0
2017-Aug-14 10:00N 43°32' E 007°01'0 0.0
2017-Aug-14 09:30N 43°32' E 007°01'0 0.0
2017-Aug-14 09:00N 43°32' E 007°01'0 0.0
2017-Aug-14 08:30N 43°32' E 007°01'0 0.0
2017-Aug-14 08:00N 43°32' E 007°01'0 0.1
2017-Aug-14 07:30N 43°32' E 007°01'0 0.1
2017-Aug-14 07:00N 43°32' E 007°01'0 0.0
2017-Aug-14 06:30N 43°32' E 007°01'0 0.0
2017-Aug-14 06:00N 43°32' E 007°01'0 0.0
2017-Aug-14 05:30N 43°32' E 007°01'1 2.2
2017-Aug-14 05:00N 43°31' E 007°00'4 7.8
2017-Aug-14 04:30N 43°27' E 007°03'4 8.5
2017-Aug-14 04:00N 43°28' E 007°09'4 8.6
2017-Aug-14 03:30N 43°29' E 007°14'4 8.4
2017-Aug-14 03:00N 43°29' E 007°20'5 8.7
2017-Aug-14 02:23N 43°31' E 007°27'7 8.7
2017-Aug-14 01:33N 43°32' E 007°37'0 8.5
2017-Aug-14 01:30N 43°32' E 007°38'5 8.5
2017-Aug-14 00:56N 43°34' E 007°44'4 8.6
2017-Aug-14 00:30N 43°35' E 007°49'4 8.5
2017-Aug-14 00:00N 43°36' E 007°55'4 8.5
2017-Aug-13 23:30N 43°38' E 007°60'4 8.8
2017-Aug-13 23:00N 43°39' E 008°06'4 8.6
2017-Aug-13 22:30N 43°40' E 008°11'4 8.9
2017-Aug-13 22:00N 43°42' E 008°17'4 8.4
2017-Aug-13 21:30N 43°45' E 008°21'4 8.5
2017-Aug-13 21:00N 43°49' E 008°24'4 8.6
2017-Aug-13 20:30N 43°52' E 008°28'4 8.6
2017-Aug-13 20:00N 43°55' E 008°32'4 8.7
2017-Aug-13 19:30N 43°59' E 008°36'4 8.5
2017-Aug-13 19:00N 44°02' E 008°39'4 8.4
2017-Aug-13 18:30N 44°06' E 008°43'5 9.2
2017-Aug-13 18:00N 44°09' E 008°46'5 9.6
2017-Aug-13 17:30N 44°13' E 008°51'5 9.5
2017-Aug-13 17:00N 44°17' E 008°55'5 9.3
2017-Aug-13 16:30N 44°21' E 008°57'4 8.1
2017-Aug-13 16:00N 44°25' E 008°55'0 0.3
2017-Aug-13 15:28N 44°25' E 008°55'0 0.0
2017-Aug-13 14:58N 44°25' E 008°55'0 0.0
2017-Aug-13 14:28N 44°25' E 008°55'0 0.0
2017-Aug-13 13:58N 44°25' E 008°55'0 0.0
2017-Aug-13 13:24N 44°25' E 008°55'0 0.0
2017-Aug-13 13:00N 44°25' E 008°55'0 0.0
2017-Aug-13 12:30N 44°25' E 008°55'0 0.0
2017-Aug-13 12:00N 44°25' E 008°55'0 0.0
2017-Aug-13 11:26N 44°25' E 008°55'0 0.0
2017-Aug-13 10:56N 44°25' E 008°55'0 0.0
2017-Aug-13 10:29N 44°25' E 008°55'0 0.0
2017-Aug-13 09:59N 44°25' E 008°55'0 0.0
2017-Aug-13 09:29N 44°25' E 008°55'0 0.0
2017-Aug-13 08:55N 44°25' E 008°55'0 0.0
2017-Aug-13 08:25N 44°25' E 008°55'0 0.0
2017-Aug-13 07:58N 44°25' E 008°55'0 0.0
2017-Aug-13 07:28N 44°25' E 008°55'0 0.0
2017-Aug-13 07:00N 44°25' E 008°55'0 0.0
2017-Aug-13 06:30N 44°25' E 008°55'0 0.0
2017-Aug-13 06:00N 44°25' E 008°55'0 0.5
2017-Aug-13 05:30N 44°24' E 008°55'2 3.1
2017-Aug-13 05:00N 44°23' E 008°57'4 8.3
2017-Aug-13 04:30N 44°20' E 008°59'4 7.1
2017-Aug-13 04:00N 44°16' E 008°59'4 7.0
2017-Aug-13 03:30N 44°13' E 008°60'4 7.3
2017-Aug-13 03:00N 44°09' E 008°60'4 7.1
2017-Aug-13 02:30N 44°05' E 009°00'3 6.5
2017-Aug-13 02:00N 44°02' E 009°01'3 6.3
2017-Aug-13 01:30N 43°59' E 009°01'3 6.3
2017-Aug-13 01:00N 43°56' E 009°01'3 6.2
2017-Aug-13 00:30N 43°53' E 009°01'3 6.2
2017-Aug-13 00:00N 43°50' E 009°02'3 6.4
2017-Aug-12 23:30N 43°47' E 009°04'3 6.0
2017-Aug-12 23:00N 43°47' E 009°08'3 6.1
2017-Aug-12 22:30N 43°48' E 009°12'3 6.4
2017-Aug-12 22:00N 43°50' E 009°16'3 6.1
2017-Aug-12 21:30N 43°50' E 009°20'3 6.9
2017-Aug-12 21:00N 43°51' E 009°24'3 6.8
2017-Aug-12 20:30N 43°53' E 009°29'3 6.6
2017-Aug-12 20:00N 43°54' E 009°33'3 6.5
2017-Aug-12 19:30N 43°55' E 009°37'3 6.8
2017-Aug-12 19:00N 43°56' E 009°42'3 6.7
2017-Aug-12 18:30N 43°57' E 009°46'4 7.4
2017-Aug-12 18:00N 43°59' E 009°51'4 7.9
2017-Aug-12 17:30N 44°03' E 009°52'4 7.4
2017-Aug-12 17:00N 44°06' E 009°50'0 0.0
2017-Aug-12 16:30N 44°06' E 009°50'0 0.0
2017-Aug-12 15:59N 44°06' E 009°50'0 0.0
2017-Aug-12 15:29N 44°06' E 009°50'0 0.0
2017-Aug-12 14:59N 44°06' E 009°50'0 0.0
2017-Aug-12 14:29N 44°06' E 009°50'0 0.0
2017-Aug-12 13:53N 44°06' E 009°50'0 0.0
2017-Aug-12 13:28N 44°06' E 009°50'0 0.0
2017-Aug-12 12:58N 44°06' E 009°50'0 0.0
2017-Aug-12 12:25N 44°06' E 009°50'0 0.0
2017-Aug-12 11:58N 44°06' E 009°50'0 0.0
2017-Aug-12 11:27N 44°06' E 009°50'0 0.0
2017-Aug-12 11:00N 44°06' E 009°50'0 0.0
2017-Aug-12 10:30N 44°06' E 009°50'0 0.0
2017-Aug-12 10:00N 44°06' E 009°50'0 0.0
2017-Aug-12 09:30N 44°06' E 009°50'0 0.0
2017-Aug-12 08:59N 44°06' E 009°50'0 0.0
2017-Aug-12 08:29N 44°06' E 009°50'0 0.0
2017-Aug-12 07:59N 44°06' E 009°50'0 0.0
2017-Aug-12 07:29N 44°06' E 009°50'0 0.0
2017-Aug-12 06:56N 44°06' E 009°50'0 0.0
2017-Aug-12 06:28N 44°06' E 009°50'0 0.0
2017-Aug-12 05:58N 44°06' E 009°50'0 0.0
2017-Aug-12 05:30N 44°06' E 009°50'0 0.0
2017-Aug-12 05:00N 44°06' E 009°50'0 0.9
2017-Aug-12 04:30N 44°06' E 009°51'4 8.2
2017-Aug-12 04:00N 44°02' E 009°53'611.5
2017-Aug-12 03:31N 43°57' E 009°56'816.5
2017-Aug-12 03:00N 43°50' E 009°50'816.8
2017-Aug-12 02:31N 43°42' E 009°45'917.4
2017-Aug-12 02:00N 43°35' E 009°39'816.8
2017-Aug-12 01:31N 43°27' E 009°42'917.3
2017-Aug-12 01:00N 43°19' E 009°48'917.4
2017-Aug-12 00:30N 43°12' E 009°54'816.4
2017-Aug-12 00:00N 43°05' E 009°60'917.2
2017-Aug-11 23:30N 42°56' E 010°01'2315.8
2017-Aug-11 22:04N 42°36' E 010°14'117.0
2017-Aug-11 22:00N 42°35' E 010°15'1017.4
2017-Aug-11 21:25N 42°29' E 010°26'717.6
2017-Aug-11 21:00N 42°24' E 010°34'  
Track history (hours):
 
Tides and Currents Weather Stations Pressure Air Temp Water Temp Dewpoint Dewpoint Depression Visibility Wind Speed Wind Dir Waves Ship Positions

MSC Orchestra

Last reported at 2017-Aug-20 23:00 UTC. Time now 2017-Aug-20 23:10 UTC.
Position N 43°38' E 008°03'.

Length 294 m; draft 7.7 m.

Type: Ship. MMSI: 372497000.

Date/timePositionNaut miles runAvg speedWind from/ knotsBaromVisibWave heightAir tempDewpointWater temp
2017-Aug-20 23:00N 43°38' E 008°03'5 9.3
2017-Aug-20 22:30N 43°40' E 008°09'5 9.4
2017-Aug-20 22:00N 43°42' E 008°14'5 9.1
2017-Aug-20 21:30N 43°45' E 008°19'5 9.4
2017-Aug-20 21:00N 43°48' E 008°24'5 9.5
2017-Aug-20 20:30N 43°52' E 008°28'5 9.4
2017-Aug-20 20:00N 43°56' E 008°32'5 9.3
2017-Aug-20 19:30N 43°59' E 008°36'5 9.1
2017-Aug-20 19:00N 44°03' E 008°40'5 9.1
2017-Aug-20 18:30N 44°06' E 008°44'5 9.3
2017-Aug-20 18:00N 44°10' E 008°48'5 9.4
2017-Aug-20 17:30N 44°14' E 008°52'5 9.4
2017-Aug-20 17:00N 44°17' E 008°56'5 9.5
2017-Aug-20 16:30N 44°22' E 008°57'3 5.8
2017-Aug-20 16:00N 44°25' E 008°55'0 0.0
2017-Aug-20 15:30N 44°25' E 008°55'0 0.0
2017-Aug-20 15:00N 44°25' E 008°55'0 0.0
2017-Aug-20 14:30N 44°25' E 008°55'0 0.0
2017-Aug-20 14:00N 44°25' E 008°55'0 0.0
2017-Aug-20 13:30N 44°25' E 008°55'0 0.0
2017-Aug-20 13:00N 44°25' E 008°55'0 0.0
2017-Aug-20 12:30N 44°25' E 008°55'0 0.0
2017-Aug-20 12:00N 44°25' E 008°55'0 0.0
2017-Aug-20 11:30N 44°25' E 008°55'0 0.0
2017-Aug-20 11:00N 44°25' E 008°55'0 0.0
2017-Aug-20 10:30N 44°25' E 008°55'0 0.0
2017-Aug-20 10:00N 44°25' E 008°55'0 0.0
2017-Aug-20 09:30N 44°25' E 008°55'0 0.0
2017-Aug-20 09:00N 44°25' E 008°55'0 0.0
2017-Aug-20 08:30N 44°25' E 008°55'0 0.0
2017-Aug-20 08:00N 44°25' E 008°55'0 0.0
2017-Aug-20 07:30N 44°25' E 008°55'0 0.0
2017-Aug-20 07:00N 44°25' E 008°55'0 0.0
2017-Aug-20 06:30N 44°25' E 008°55'0 0.0
2017-Aug-20 06:00N 44°25' E 008°55'0 0.1
2017-Aug-20 05:30N 44°25' E 008°55'1 1.8
2017-Aug-20 05:00N 44°24' E 008°55'4 7.9
2017-Aug-20 04:31N 44°21' E 008°59'5 9.3
2017-Aug-20 04:00N 44°16' E 008°59'3 6.8
2017-Aug-20 03:30N 44°13' E 008°60'3 6.9
2017-Aug-20 03:00N 44°09' E 008°60'3 6.9
2017-Aug-20 02:30N 44°06' E 009°00'3 6.6
2017-Aug-20 02:00N 44°02' E 009°00'3 6.2
2017-Aug-20 01:30N 43°59' E 009°01'3 6.2
2017-Aug-20 01:00N 43°56' E 009°01'3 6.4
2017-Aug-20 00:30N 43°53' E 009°01'3 6.5
2017-Aug-20 00:00N 43°50' E 009°02'3 6.1
2017-Aug-19 23:30N 43°47' E 009°04'3 6.2
2017-Aug-19 23:00N 43°47' E 009°08'3 6.4
2017-Aug-19 22:30N 43°49' E 009°12'3 6.2
2017-Aug-19 22:00N 43°50' E 009°16'3 6.4
2017-Aug-19 21:30N 43°50' E 009°20'3 6.4
2017-Aug-19 21:00N 43°51' E 009°24'3 6.7
2017-Aug-19 20:30N 43°53' E 009°29'3 6.7
2017-Aug-19 20:00N 43°54' E 009°33'3 6.7
2017-Aug-19 19:30N 43°55' E 009°38'3 6.7
2017-Aug-19 19:00N 43°56' E 009°42'3 6.6
2017-Aug-19 18:30N 43°58' E 009°46'3 6.6
2017-Aug-19 18:00N 43°59' E 009°50'4 7.6
2017-Aug-19 17:30N 44°02' E 009°52'4 8.4
2017-Aug-19 17:01N 44°06' E 009°50'0 0.2
2017-Aug-19 16:29N 44°06' E 009°50'0 0.0
2017-Aug-19 15:59N 44°06' E 009°50'0 0.0
2017-Aug-19 15:28N 44°06' E 009°50'0 0.0
2017-Aug-19 14:58N 44°06' E 009°50'0 0.0
2017-Aug-19 13:58N 44°06' E 009°50'0 0.0
2017-Aug-19 13:28N 44°06' E 009°50'0 0.0
2017-Aug-19 13:00N 44°06' E 009°50'0 0.0
2017-Aug-19 12:30N 44°06' E 009°50'0 0.0
2017-Aug-19 12:00N 44°06' E 009°50'0 0.0
2017-Aug-19 11:30N 44°06' E 009°50'0 0.0
2017-Aug-19 10:57N 44°06' E 009°50'0 0.0
2017-Aug-19 10:29N 44°06' E 009°50'0 0.0
2017-Aug-19 09:59N 44°06' E 009°50'0 0.0
2017-Aug-19 09:29N 44°06' E 009°50'0 0.0
2017-Aug-19 08:56N 44°06' E 009°50'0 0.0
2017-Aug-19 08:29N 44°06' E 009°50'0 0.0
2017-Aug-19 07:58N 44°06' E 009°50'0 0.0
2017-Aug-19 07:28N 44°06' E 009°50'0 0.0
2017-Aug-19 06:58N 44°06' E 009°50'0 0.0
2017-Aug-19 06:28N 44°06' E 009°50'0 0.0
2017-Aug-19 06:00N 44°06' E 009°50'0 0.0
2017-Aug-19 05:30N 44°06' E 009°50'0 0.0
2017-Aug-19 05:00N 44°06' E 009°50'0 0.3
2017-Aug-19 04:30N 44°06' E 009°50'1 2.9
2017-Aug-19 04:00N 44°05' E 009°51'510.6
2017-Aug-19 03:30N 44°01' E 009°56'815.1
2017-Aug-19 03:00N 43°54' E 009°53'816.5
2017-Aug-19 02:30N 43°46' E 009°48'816.5
2017-Aug-19 02:00N 43°39' E 009°42'816.1
2017-Aug-19 01:30N 43°32' E 009°38'917.0
2017-Aug-19 01:00N 43°24' E 009°44'817.0
2017-Aug-19 00:30N 43°17' E 009°50'816.8
2017-Aug-19 00:00N 43°10' E 009°56'816.4
2017-Aug-18 23:30N 43°02' E 009°60'917.4
2017-Aug-18 23:00N 42°53' E 010°01'816.5
2017-Aug-18 22:30N 42°45' E 010°02'816.9
2017-Aug-18 22:00N 42°39' E 010°09'917.5
2017-Aug-18 21:30N 42°34' E 010°19'917.4
2017-Aug-18 21:00N 42°29' E 010°28'917.5
2017-Aug-18 20:30N 42°23' E 010°37'817.3
2017-Aug-18 20:00N 42°17' E 010°46'817.0
2017-Aug-18 19:30N 42°12' E 010°55'816.5
2017-Aug-18 19:00N 42°09' E 011°06'917.2
2017-Aug-18 18:30N 42°08' E 011°17'18 1.3
2017-Aug-18 04:17N 42°04' E 011°41'1214.9
2017-Aug-18 03:28N 41°60' E 011°26'715.1
2017-Aug-18 03:00N 41°57' E 011°17'915.2
2017-Aug-18 02:25N 41°54' E 011°06'1715.3
2017-Aug-18 01:19N 41°47' E 010°45'815.4
2017-Aug-18 00:47N 41°44' E 010°35'615.4
2017-Aug-18 00:22N 41°42' E 010°27'615.4
2017-Aug-18 00:00N 41°40' E 010°20'815.4
2017-Aug-17 23:30N 41°36' E 010°11'1415.6
2017-Aug-17 22:38N 41°31' E 009°54'715.3
2017-Aug-17 22:09N 41°28' E 009°45'215.4
2017-Aug-17 22:00N 41°27' E 009°43'815.5
2017-Aug-17 21:28N 41°25' E 009°32'46 3.6
2017-Aug-17 08:45N 41°51' E 008°42'417.8
2017-Aug-17 08:30N 41°49' E 008°37'1817.5
2017-Aug-17 07:29N 41°45' E 008°14'918.0
2017-Aug-17 07:00N 41°44' E 008°03'1018.4
2017-Aug-17 06:29N 41°43' E 007°50'918.4
2017-Aug-17 06:00N 41°42' E 007°38'918.3
2017-Aug-17 05:30N 41°41' E 007°26'1018.9
2017-Aug-17 05:00N 41°40' E 007°13'918.8
2017-Aug-17 04:30N 41°39' E 007°01'918.8
2017-Aug-17 04:00N 41°38' E 006°48'918.7
2017-Aug-17 03:30N 41°37' E 006°36'918.7
2017-Aug-17 03:00N 41°36' E 006°23'918.8
2017-Aug-17 02:30N 41°35' E 006°11'1319.0
2017-Aug-17 01:50N 41°34' E 005°54'618.9
2017-Aug-17 01:29N 41°33' E 005°45'918.8
2017-Aug-17 01:00N 41°32' E 005°33'1318.4
2017-Aug-17 00:18N 41°31' E 005°16'918.9
2017-Aug-16 23:49N 41°30' E 005°04'719.3
2017-Aug-16 23:29N 41°29' E 004°55'1018.9
2017-Aug-16 22:58N 41°28' E 004°42'918.9
2017-Aug-16 22:30N 41°27' E 004°31'1018.9
2017-Aug-16 22:00N 41°26' E 004°18'918.7
2017-Aug-16 21:30N 41°25' E 004°06'918.6
2017-Aug-16 21:00N 41°24' E 003°54'918.5
2017-Aug-16 20:30N 41°24' E 003°41'918.5
2017-Aug-16 20:00N 41°23' E 003°29'918.4
2017-Aug-16 19:30N 41°22' E 003°17'918.8
2017-Aug-16 19:00N 41°21' E 003°04'918.7
2017-Aug-16 18:30N 41°20' E 002°52'918.7
2017-Aug-16 18:00N 41°19' E 002°40'918.8
2017-Aug-16 17:30N 41°18' E 002°27'918.8
2017-Aug-16 17:00N 41°17' E 002°15'5 9.9
2017-Aug-16 16:30N 41°20' E 002°10'2 3.2
2017-Aug-16 16:00N 41°22' E 002°11'0 0.0
2017-Aug-16 15:28N 41°22' E 002°11'0 0.0
2017-Aug-16 14:58N 41°22' E 002°11'0 0.0
2017-Aug-16 14:03N 41°22' E 002°11'0 0.0
2017-Aug-16 13:54N 41°22' E 002°11'0 0.0
2017-Aug-16 12:02N 41°22' E 002°11'0 0.0
2017-Aug-16 11:44N 41°22' E 002°11'0 0.0
2017-Aug-16 11:08N 41°22' E 002°11'0 0.0
2017-Aug-16 10:56N 41°22' E 002°11'0 0.0
2017-Aug-16 09:44N 41°22' E 002°11'0 0.0
2017-Aug-16 09:25N 41°22' E 002°11'0 0.0
2017-Aug-16 08:55N 41°22' E 002°11'0 0.0
2017-Aug-16 07:37N 41°22' E 002°11'0 0.0
2017-Aug-16 07:06N 41°22' E 002°11'0 0.0
2017-Aug-16 06:58N 41°22' E 002°11'1 2.3
2017-Aug-16 06:30N 41°21' E 002°10'3 5.6
2017-Aug-16 06:00N 41°18' E 002°11'814.8
2017-Aug-16 05:30N 41°10' E 002°11'1017.7
2017-Aug-16 04:57N 41°01' E 002°11'818.1
2017-Aug-16 04:30N 40°53' E 002°12'1118.3
2017-Aug-16 03:55N 40°42' E 002°12'818.2
2017-Aug-16 03:30N 40°35' E 002°12'918.4
2017-Aug-16 03:00N 40°25' E 002°12'918.1
2017-Aug-16 02:30N 40°16' E 002°13'918.3
2017-Aug-16 02:00N 40°07' E 002°13'918.4
2017-Aug-16 01:30N 39°58' E 002°14'918.5
2017-Aug-16 01:00N 39°49' E 002°14'918.7
2017-Aug-16 00:31N 39°39' E 002°15'917.6
2017-Aug-15 23:58N 39°31' E 002°20'818.3
2017-Aug-15 23:30N 39°26' E 002°29'815.7
2017-Aug-15 23:00N 39°30' E 002°37'3 6.7
2017-Aug-15 22:30N 39°33' E 002°38'0 0.2
2017-Aug-15 21:59N 39°33' E 002°38'0 0.0
2017-Aug-15 21:29N 39°33' E 002°38'0 0.0
2017-Aug-15 20:59N 39°33' E 002°38'0 0.0
2017-Aug-15 20:29N 39°33' E 002°38'0 0.0
2017-Aug-15 19:59N 39°33' E 002°38'0 0.0
2017-Aug-15 19:28N 39°33' E 002°38'0 0.0
2017-Aug-15 18:55N 39°33' E 002°38'0 0.0
2017-Aug-15 18:25N 39°33' E 002°38'0 0.0
2017-Aug-15 17:58N 39°33' E 002°38'0 0.0
2017-Aug-15 17:30N 39°33' E 002°38'0 0.0
2017-Aug-15 17:00N 39°33' E 002°38'0 0.0
2017-Aug-15 16:30N 39°33' E 002°38'0 0.0
2017-Aug-15 16:00N 39°33' E 002°38'0 0.0
2017-Aug-15 15:30N 39°33' E 002°38'0 0.0
2017-Aug-15 14:59N 39°33' E 002°38'0 0.0
2017-Aug-15 14:23N 39°33' E 002°38'0 0.0
2017-Aug-15 13:59N 39°33' E 002°38'0 0.0
2017-Aug-15 13:29N 39°33' E 002°38'0 0.0
2017-Aug-15 12:58N 39°33' E 002°38'0 0.0
2017-Aug-15 12:25N 39°33' E 002°38'0 0.0
2017-Aug-15 11:58N 39°33' E 002°38'0 0.2
2017-Aug-15 11:30N 39°33' E 002°38'2 3.6
2017-Aug-15 11:00N 39°31' E 002°38'814.9
2017-Aug-15 10:30N 39°26' E 002°32'714.0
2017-Aug-15 10:00N 39°28' E 002°23'815.5
2017-Aug-15 09:30N 39°34' E 002°16'815.0
2017-Aug-15 08:59N 39°41' E 002°20'816.2
2017-Aug-15 08:30N 39°46' E 002°28'816.2
2017-Aug-15 08:00N 39°52' E 002°35'816.4
2017-Aug-15 07:30N 39°57' E 002°43'816.2
2017-Aug-15 07:00N 40°03' E 002°50'816.3
2017-Aug-15 06:30N 40°09' E 002°58'816.2
2017-Aug-15 06:00N 40°15' E 003°06'816.3
2017-Aug-15 05:30N 40°20' E 003°13'816.3
2017-Aug-15 05:00N 40°26' E 003°21'916.4
2017-Aug-15 04:29N 40°32' E 003°29'1217.0
2017-Aug-15 03:46N 40°40' E 003°40'4416.8
2017-Aug-15 01:07N 41°12' E 004°22'216.8
2017-Aug-15 01:00N 41°13' E 004°24'816.3
2017-Aug-15 00:30N 41°19' E 004°32'816.0
2017-Aug-15 00:01N 41°24' E 004°39'1016.1
2017-Aug-14 23:22N 41°31' E 004°49'616.5
2017-Aug-14 22:59N 41°36' E 004°55'816.6
2017-Aug-14 22:30N 41°41' E 005°03'816.5
2017-Aug-14 22:00N 41°47' E 005°11'816.9
2017-Aug-14 21:30N 41°53' E 005°19'916.7
2017-Aug-14 20:59N 41°59' E 005°27'816.6
2017-Aug-14 20:30N 42°05' E 005°35'816.5
2017-Aug-14 20:00N 42°11' E 005°43'1116.7
2017-Aug-14 19:19N 42°19' E 005°54'516.8
2017-Aug-14 19:00N 42°22' E 005°59'816.5
2017-Aug-14 18:30N 42°28' E 006°07'816.8
2017-Aug-14 18:00N 42°34' E 006°15'917.1
2017-Aug-14 17:31N 42°40' E 006°24'917.4
2017-Aug-14 17:00N 42°46' E 006°32'917.3
2017-Aug-14 16:30N 42°52' E 006°40'917.4
2017-Aug-14 16:01N 42°58' E 006°48'917.3
2017-Aug-14 15:30N 43°07' E 006°52'917.3
2017-Aug-14 15:00N 43°15' E 006°55'817.4
2017-Aug-14 14:31N 43°23' E 006°58'816.5
2017-Aug-14 14:00N 43°31' E 007°00'1 1.7
2017-Aug-14 13:29N 43°32' E 007°01'0 0.0
2017-Aug-14 13:00N 43°32' E 007°01'0 0.0
2017-Aug-14 12:30N 43°32' E 007°01'0 0.0
2017-Aug-14 12:00N 43°32' E 007°01'0 0.0
2017-Aug-14 11:30N 43°32' E 007°01'0 0.1
2017-Aug-14 11:00N 43°32' E 007°01'0 0.0
2017-Aug-14 10:30N 43°32' E 007°01'0 0.0
2017-Aug-14 10:00N 43°32' E 007°01'0 0.0
2017-Aug-14 09:30N 43°32' E 007°01'0 0.0
2017-Aug-14 09:00N 43°32' E 007°01'0 0.0
2017-Aug-14 08:30N 43°32' E 007°01'0 0.0
2017-Aug-14 08:00N 43°32' E 007°01'0 0.1
2017-Aug-14 07:30N 43°32' E 007°01'0 0.1
2017-Aug-14 07:00N 43°32' E 007°01'0 0.0
2017-Aug-14 06:30N 43°32' E 007°01'0 0.0
2017-Aug-14 06:00N 43°32' E 007°01'0 0.0
2017-Aug-14 05:30N 43°32' E 007°01'1 2.2
2017-Aug-14 05:00N 43°31' E 007°00'4 7.8
2017-Aug-14 04:30N 43°27' E 007°03'4 8.5
2017-Aug-14 04:00N 43°28' E 007°09'4 8.6
2017-Aug-14 03:30N 43°29' E 007°14'4 8.4
2017-Aug-14 03:00N 43°29' E 007°20'5 8.7
2017-Aug-14 02:23N 43°31' E 007°27'7 8.7
2017-Aug-14 01:33N 43°32' E 007°37'0 8.5
2017-Aug-14 01:30N 43°32' E 007°38'5 8.5
2017-Aug-14 00:56N 43°34' E 007°44'4 8.6
2017-Aug-14 00:30N 43°35' E 007°49'4 8.5
2017-Aug-14 00:00N 43°36' E 007°55'4 8.5
2017-Aug-13 23:30N 43°38' E 007°60'4 8.8
2017-Aug-13 23:00N 43°39' E 008°06'4 8.6
2017-Aug-13 22:30N 43°40' E 008°11'4 8.9
2017-Aug-13 22:00N 43°42' E 008°17'4 8.4
2017-Aug-13 21:30N 43°45' E 008°21'4 8.5
2017-Aug-13 21:00N 43°49' E 008°24'4 8.6
2017-Aug-13 20:30N 43°52' E 008°28'4 8.6
2017-Aug-13 20:00N 43°55' E 008°32'4 8.7
2017-Aug-13 19:30N 43°59' E 008°36'4 8.5
2017-Aug-13 19:00N 44°02' E 008°39'4 8.4
2017-Aug-13 18:30N 44°06' E 008°43'5 9.2
2017-Aug-13 18:00N 44°09' E 008°46'5 9.6
2017-Aug-13 17:30N 44°13' E 008°51'5 9.5
2017-Aug-13 17:00N 44°17' E 008°55'5 9.3
2017-Aug-13 16:30N 44°21' E 008°57'4 8.1
2017-Aug-13 16:00N 44°25' E 008°55'0 0.3
2017-Aug-13 15:28N 44°25' E 008°55'0 0.0
2017-Aug-13 14:58N 44°25' E 008°55'0 0.0
2017-Aug-13 14:28N 44°25' E 008°55'0 0.0
2017-Aug-13 13:58N 44°25' E 008°55'0 0.0
2017-Aug-13 13:24N 44°25' E 008°55'0 0.0
2017-Aug-13 13:00N 44°25' E 008°55'0 0.0
2017-Aug-13 12:30N 44°25' E 008°55'0 0.0
2017-Aug-13 12:00N 44°25' E 008°55'0 0.0
2017-Aug-13 11:26N 44°25' E 008°55'0 0.0
2017-Aug-13 10:56N 44°25' E 008°55'0 0.0
2017-Aug-13 10:29N 44°25' E 008°55'0 0.0
2017-Aug-13 09:59N 44°25' E 008°55'0 0.0
2017-Aug-13 09:29N 44°25' E 008°55'0 0.0
2017-Aug-13 08:55N 44°25' E 008°55'0 0.0
2017-Aug-13 08:25N 44°25' E 008°55'0 0.0
2017-Aug-13 07:58N 44°25' E 008°55'0 0.0
2017-Aug-13 07:28N 44°25' E 008°55'0 0.0
2017-Aug-13 07:00N 44°25' E 008°55'0 0.0
2017-Aug-13 06:30N 44°25' E 008°55'0 0.0
2017-Aug-13 06:00N 44°25' E 008°55'0 0.5
2017-Aug-13 05:30N 44°24' E 008°55'2 3.1
2017-Aug-13 05:00N 44°23' E 008°57'4 8.3
2017-Aug-13 04:30N 44°20' E 008°59'4 7.1
2017-Aug-13 04:00N 44°16' E 008°59'4 7.0
2017-Aug-13 03:30N 44°13' E 008°60'4 7.3
2017-Aug-13 03:00N 44°09' E 008°60'4 7.1
2017-Aug-13 02:30N 44°05' E 009°00'3 6.5
2017-Aug-13 02:00N 44°02' E 009°01'3 6.3
2017-Aug-13 01:30N 43°59' E 009°01'3 6.3
2017-Aug-13 01:00N 43°56' E 009°01'3 6.2
2017-Aug-13 00:30N 43°53' E 009°01'3 6.2
2017-Aug-13 00:00N 43°50' E 009°02'3 6.4
2017-Aug-12 23:30N 43°47' E 009°04'3 6.0
2017-Aug-12 23:00N 43°47' E 009°08'3 6.1
2017-Aug-12 22:30N 43°48' E 009°12'3 6.4
2017-Aug-12 22:00N 43°50' E 009°16'3 6.1
2017-Aug-12 21:30N 43°50' E 009°20'3 6.9
2017-Aug-12 21:00N 43°51' E 009°24'3 6.8
2017-Aug-12 20:30N 43°53' E 009°29'3 6.6
2017-Aug-12 20:00N 43°54' E 009°33'3 6.5
2017-Aug-12 19:30N 43°55' E 009°37'3 6.8
2017-Aug-12 19:00N 43°56' E 009°42'3 6.7
2017-Aug-12 18:30N 43°57' E 009°46'4 7.4
2017-Aug-12 18:00N 43°59' E 009°51'4 7.9
2017-Aug-12 17:30N 44°03' E 009°52'4 7.4
2017-Aug-12 17:00N 44°06' E 009°50'0 0.0
2017-Aug-12 16:30N 44°06' E 009°50'0 0.0
2017-Aug-12 15:59N 44°06' E 009°50'0 0.0
2017-Aug-12 15:29N 44°06' E 009°50'0 0.0
2017-Aug-12 14:59N 44°06' E 009°50'0 0.0
2017-Aug-12 14:29N 44°06' E 009°50'0 0.0
2017-Aug-12 13:53N 44°06' E 009°50'0 0.0
2017-Aug-12 13:28N 44°06' E 009°50'0 0.0
2017-Aug-12 12:58N 44°06' E 009°50'0 0.0
2017-Aug-12 12:25N 44°06' E 009°50'0 0.0
2017-Aug-12 11:58N 44°06' E 009°50'0 0.0
2017-Aug-12 11:27N 44°06' E 009°50'0 0.0
2017-Aug-12 11:00N 44°06' E 009°50'0 0.0
2017-Aug-12 10:30N 44°06' E 009°50'0 0.0
2017-Aug-12 10:00N 44°06' E 009°50'0 0.0
2017-Aug-12 09:30N 44°06' E 009°50'0 0.0
2017-Aug-12 08:59N 44°06' E 009°50'0 0.0
2017-Aug-12 08:29N 44°06' E 009°50'0 0.0
2017-Aug-12 07:59N 44°06' E 009°50'0 0.0
2017-Aug-12 07:29N 44°06' E 009°50'0 0.0
2017-Aug-12 06:56N 44°06' E 009°50'0 0.0
2017-Aug-12 06:28N 44°06' E 009°50'0 0.0
2017-Aug-12 05:58N 44°06' E 009°50'0 0.0
2017-Aug-12 05:30N 44°06' E 009°50'0 0.0
2017-Aug-12 05:00N 44°06' E 009°50'0 0.9
2017-Aug-12 04:30N 44°06' E 009°51'4 8.2
2017-Aug-12 04:00N 44°02' E 009°53'611.5
2017-Aug-12 03:31N 43°57' E 009°56'816.5
2017-Aug-12 03:00N 43°50' E 009°50'816.8
2017-Aug-12 02:31N 43°42' E 009°45'917.4
2017-Aug-12 02:00N 43°35' E 009°39'816.8
2017-Aug-12 01:31N 43°27' E 009°42'917.3
2017-Aug-12 01:00N 43°19' E 009°48'917.4
2017-Aug-12 00:30N 43°12' E 009°54'816.4
2017-Aug-12 00:00N 43°05' E 009°60'917.2
2017-Aug-11 23:30N 42°56' E 010°01'2315.8
2017-Aug-11 22:04N 42°36' E 010°14'117.0
2017-Aug-11 22:00N 42°35' E 010°15'1017.4
2017-Aug-11 21:25N 42°29' E 010°26'717.6
2017-Aug-11 21:00N 42°24' E 010°34'  

Dump ship's entire track history